Time;durP1;ratioP1;P1;durP2;ratioP2;P2;SDS_P1;SDS_P2;PMS_P1;PMS_P2;Temp;Humidity;BMP_temperature;BMP_pressure;BME280_temperature;BME280_humidity;BME280_pressure;Samples;Min_cycle;Max_cycle;Signal;HPM_P1;HPM_P2
2023/04/05 00:01:29;;;;;;;9.43;5.10;;;3.40;99.90;;;;;;6363901;22;20021;-79
2023/04/05 00:03:57;;;;;;;11.32;5.28;;;3.40;99.90;;;;;;6334981;22;20068;-78
2023/04/05 00:06:28;;;;;;;12.60;5.38;;;3.40;99.90;;;;;;6335058;22;20026;-79
2023/04/05 00:08:55;;;;;;;11.50;4.97;;;3.40;99.90;;;;;;6335027;22;20345;-79
2023/04/05 00:11:21;;;;;;;13.23;5.38;;;3.40;99.90;;;;;;6334352;22;20022;-79
2023/04/05 00:13:48;;;;;;;9.35;5.90;;;3.30;99.90;;;;;;6363751;22;20018;-79
2023/04/05 00:16:15;;;;;;;9.90;5.03;;;3.30;99.90;;;;;;6363048;22;20177;-79
2023/04/05 00:18:48;;;;;;;10.00;5.00;;;3.20;99.90;;;;;;6363869;22;20014;-80
2023/04/05 00:21:20;;;;;;;9.35;4.90;;;3.20;99.90;;;;;;6335164;22;20080;-80
2023/04/05 00:23:51;;;;;;;9.38;5.65;;;3.10;99.90;;;;;;6362967;22;20862;-79
2023/04/05 00:26:18;;;;;;;9.52;5.50;;;3.10;99.90;;;;;;6362151;22;20018;-80
2023/04/05 00:28:44;;;;;;;7.05;5.00;;;3.10;99.90;;;;;;6334920;22;20021;-80
2023/04/05 00:31:10;;;;;;;10.63;5.07;;;3.00;99.90;;;;;;6363159;22;20014;-79
2023/04/05 00:33:36;;;;;;;10.95;5.88;;;3.00;99.90;;;;;;6335045;22;20118;-80
2023/04/05 00:36:10;;;;;;;12.95;5.50;;;2.90;99.90;;;;;;6335250;22;20053;-79
2023/04/05 00:38:36;;;;;;;9.70;5.40;;;2.90;99.90;;;;;;6363638;22;20044;-80
2023/04/05 00:41:01;;;;;;;9.38;5.10;;;2.90;99.90;;;;;;6334829;22;20053;-80
2023/04/05 00:43:27;;;;;;;8.55;6.18;;;2.90;99.90;;;;;;6335296;22;20015;-80
2023/04/05 00:45:53;;;;;;;10.55;4.63;;;2.90;99.90;;;;;;6335180;22;20064;-78
2023/04/05 00:48:20;;;;;;;8.88;5.30;;;2.90;99.90;;;;;;6363922;22;20018;-78
2023/04/05 00:50:48;;;;;;;10.07;5.22;;;2.80;99.90;;;;;;6363644;22;20089;-78
2023/04/05 00:53:17;;;;;;;9.85;5.55;;;2.80;99.90;;;;;;6363718;22;20344;-79
2023/04/05 00:55:43;;;;;;;9.32;5.18;;;2.80;99.90;;;;;;6363473;22;20057;-79
2023/04/05 00:58:09;;;;;;;9.35;6.35;;;2.80;99.90;;;;;;6335499;22;20366;-77
2023/04/05 01:00:38;;;;;;;9.90;5.32;;;2.70;99.90;;;;;;6363184;22;20025;-78
2023/04/05 01:03:06;;;;;;;14.07;5.85;;;2.70;99.90;;;;;;6335190;22;20087;-79
2023/04/05 01:05:52;;;;;;;8.10;5.10;;;2.70;99.90;;;;;;6363605;22;20046;-79
2023/04/05 01:08:32;;;;;;;11.02;5.88;;;2.70;99.90;;;;;;6334844;22;20022;-79
2023/04/05 01:11:02;;;;;;;10.32;5.68;;;2.60;99.90;;;;;;6364866;22;20029;-78
2023/04/05 01:13:31;;;;;;;12.48;5.47;;;2.60;99.90;;;;;;6311039;22;20022;-79
2023/04/05 01:15:57;;;;;;;13.10;5.68;;;2.50;99.90;;;;;;6336424;22;20440;-79
2023/04/05 01:18:24;;;;;;;10.13;5.22;;;2.50;99.90;;;;;;6364668;22;20091;-80
2023/04/05 01:21:36;;;;;;;9.68;5.50;;;2.40;99.90;;;;;;6336889;22;20018;-80
2023/04/05 01:24:31;;;;;;;11.82;5.90;;;2.50;99.90;;;;;;6310635;22;20022;-80
2023/04/05 01:27:21;;;;;;;10.73;4.85;;;2.40;99.90;;;;;;6365133;22;20058;-80
2023/04/05 01:30:12;;;;;;;8.40;5.22;;;2.40;99.90;;;;;;6337010;22;20035;-80
2023/04/05 01:32:58;;;;;;;8.32;4.78;;;2.40;99.90;;;;;;6364923;22;20045;-81
2023/04/05 01:35:43;;;;;;;11.43;5.22;;;2.40;99.90;;;;;;6335497;22;20137;-80
2023/04/05 01:38:15;;;;;;;12.77;5.45;;;2.50;99.90;;;;;;6336302;22;20033;-80
2023/04/05 01:40:41;;;;;;;9.45;5.50;;;2.50;99.90;;;;;;6336204;22;20129;-80
2023/04/05 01:43:14;;;;;;;11.40;5.40;;;2.50;99.90;;;;;;6365168;22;20118;-80
2023/04/05 01:45:41;;;;;;;11.32;5.18;;;2.40;99.90;;;;;;6364192;22;20019;-80
2023/04/05 01:48:07;;;;;;;10.43;5.53;;;2.40;99.90;;;;;;6364399;22;20078;-79
2023/04/05 01:50:32;;;;;;;10.68;5.55;;;2.40;99.90;;;;;;6336058;22;20050;-80
2023/04/05 01:52:58;;;;;;;10.23;5.85;;;2.40;99.90;;;;;;6364323;22;20044;-79
2023/04/05 01:55:24;;;;;;;8.40;5.50;;;2.40;99.90;;;;;;6364995;22;20058;-79
2023/04/05 01:57:51;;;;;;;9.73;5.50;;;2.30;99.90;;;;;;6335589;22;20026;-80
2023/04/05 02:00:17;;;;;;;7.32;5.07;;;2.30;99.90;;;;;;6336249;22;20026;-79
2023/04/05 02:02:42;;;;;;;8.23;5.47;;;2.30;99.90;;;;;;6335684;22;20030;-79
2023/04/05 02:05:08;;;;;;;9.00;5.57;;;2.30;99.90;;;;;;6364242;22;20037;-79
2023/04/05 02:07:34;;;;;;;14.23;5.63;;;2.30;99.90;;;;;;6335670;22;20014;-80
2023/04/05 02:10:00;;;;;;;9.07;5.88;;;2.20;99.90;;;;;;6364397;22;20018;-80
2023/04/05 02:12:26;;;;;;;10.57;5.28;;;2.30;99.90;;;;;;6364240;22;20029;-80
2023/04/05 02:14:51;;;;;;;10.18;5.82;;;2.30;99.90;;;;;;6336717;22;20022;-79
2023/04/05 02:17:17;;;;;;;12.93;5.93;;;2.20;99.90;;;;;;6335496;22;20381;-80
2023/04/05 02:19:45;;;;;;;12.90;6.05;;;2.30;99.90;;;;;;6364268;22;20018;-80
2023/04/05 02:22:11;;;;;;;8.00;5.07;;;2.10;99.90;;;;;;6364038;22;20337;-80
2023/04/05 02:24:37;;;;;;;10.02;6.10;;;2.10;99.90;;;;;;6364635;22;20299;-80
2023/04/05 02:27:02;;;;;;;12.20;6.05;;;2.10;99.90;;;;;;6364213;22;20032;-80
2023/04/05 02:29:30;;;;;;;9.70;5.30;;;2.10;99.90;;;;;;6335752;22;20026;-80
2023/04/05 02:31:56;;;;;;;8.20;5.50;;;2.00;99.90;;;;;;6363844;22;20026;-79
2023/04/05 02:34:22;;;;;;;8.82;5.70;;;2.00;99.90;;;;;;6364263;22;20014;-80
2023/04/05 02:36:50;;;;;;;11.85;6.07;;;2.10;99.90;;;;;;6335333;22;20087;-80
2023/04/05 02:39:15;;;;;;;10.95;6.40;;;2.10;99.90;;;;;;6335900;22;20421;-80
2023/04/05 02:41:41;;;;;;;11.85;6.20;;;2.10;99.90;;;;;;6363681;22;20014;-80
2023/04/05 02:44:07;;;;;;;10.48;5.63;;;2.00;99.90;;;;;;6309368;22;20110;-81
2023/04/05 02:46:32;;;;;;;11.32;5.07;;;2.00;99.90;;;;;;6364402;22;20126;-80
2023/04/05 02:48:58;;;;;;;8.82;4.88;;;2.00;99.90;;;;;;6364216;22;20125;-80
2023/04/05 02:51:25;;;;;;;11.55;5.63;;;2.00;99.90;;;;;;6364646;22;20118;-79
2023/04/05 02:53:51;;;;;;;10.95;5.72;;;1.90;99.90;;;;;;6364466;22;20018;-80
2023/04/05 02:56:17;;;;;;;7.47;4.85;;;1.90;99.90;;;;;;6336553;22;20052;-80
2023/04/05 02:58:44;;;;;;;9.45;5.93;;;1.80;99.90;;;;;;6363995;22;20053;-79
2023/04/05 03:01:11;;;;;;;14.23;5.68;;;1.70;99.90;;;;;;6364859;22;20006;-79
2023/04/05 03:03:39;;;;;;;9.85;6.55;;;1.70;99.90;;;;;;6336219;22;20026;-80
2023/04/05 03:06:12;;;;;;;10.68;6.28;;;1.70;99.90;;;;;;6364900;22;20394;-80
2023/04/05 03:08:45;;;;;;;13.07;6.75;;;1.60;99.90;;;;;;6336590;22;20100;-80
2023/04/05 03:11:11;;;;;;;17.10;7.72;;;1.60;99.90;;;;;;6336326;22;20020;-79
2023/04/05 03:13:37;;;;;;;14.20;7.03;;;1.60;99.90;;;;;;6310307;22;20022;-80
2023/04/05 03:16:04;;;;;;;13.60;6.57;;;1.70;99.90;;;;;;6336128;22;20120;-80
2023/04/05 03:18:29;;;;;;;13.13;6.45;;;1.60;99.90;;;;;;6336216;22;20294;-80
2023/04/05 03:20:56;;;;;;;10.20;6.55;;;1.60;99.90;;;;;;6366092;22;20022;-80
2023/04/05 03:23:27;;;;;;;13.23;6.85;;;1.60;99.90;;;;;;6338581;22;20065;-80
2023/04/05 03:26:03;;;;;;;11.75;6.40;;;1.70;99.90;;;;;;6366006;22;20097;-80
2023/04/05 03:28:33;;;;;;;11.90;6.90;;;1.60;99.90;;;;;;6337276;22;20070;-80
2023/04/05 03:30:58;;;;;;;13.20;7.20;;;1.60;99.90;;;;;;6364551;22;20033;-80
2023/04/05 03:33:24;;;;;;;10.90;6.45;;;1.60;99.90;;;;;;6363770;22;20144;-80
2023/04/05 03:35:50;;;;;;;8.07;6.13;;;1.60;99.90;;;;;;6335824;22;20442;-80
2023/04/05 03:38:16;;;;;;;8.68;5.50;;;1.50;99.90;;;;;;6364436;22;20022;-80
2023/04/05 03:40:42;;;;;;;12.00;6.10;;;1.50;99.90;;;;;;6336178;22;20075;-79
2023/04/05 03:43:07;;;;;;;10.60;7.05;;;1.50;99.90;;;;;;6336949;22;20038;-80
2023/04/05 03:45:33;;;;;;;11.60;6.20;;;1.40;99.90;;;;;;6364119;22;20075;-80
2023/04/05 03:47:59;;;;;;;11.43;6.28;;;1.30;99.90;;;;;;6364131;22;20083;-81
2023/04/05 03:50:25;;;;;;;13.25;6.45;;;1.20;99.90;;;;;;6335892;22;20034;-80
2023/04/05 03:52:52;;;;;;;11.25;6.32;;;1.10;99.90;;;;;;6335670;22;20486;-81
2023/04/05 03:55:18;;;;;;;12.50;6.45;;;1.30;99.90;;;;;;6335315;22;20542;-79
2023/04/05 03:57:44;;;;;;;10.40;6.25;;;1.30;99.90;;;;;;6362730;22;20014;-80
2023/04/05 04:00:13;;;;;;;12.00;6.57;;;1.30;99.90;;;;;;6363695;22;20026;-80
2023/04/05 04:02:49;;;;;;;12.55;6.05;;;1.40;99.90;;;;;;6362766;22;20070;-80
2023/04/05 04:05:16;;;;;;;11.05;5.97;;;1.40;99.90;;;;;;6335852;22;20055;-80
2023/04/05 04:07:42;;;;;;;8.88;5.60;;;1.30;99.90;;;;;;6363577;22;20018;-81
2023/04/05 04:10:15;;;;;;;11.07;6.10;;;1.30;99.90;;;;;;6310168;22;20026;-80
2023/04/05 04:12:41;;;;;;;9.82;6.20;;;1.30;99.90;;;;;;6309384;22;20025;-81
2023/04/05 04:15:07;;;;;;;9.68;6.43;;;1.30;99.90;;;;;;6335737;22;20106;-80
2023/04/05 04:17:35;;;;;;;11.60;6.78;;;1.30;99.90;;;;;;6335168;22;20440;-80
2023/04/05 04:20:06;;;;;;;10.63;6.38;;;1.30;99.90;;;;;;6335663;22;20314;-80
2023/04/05 04:22:32;;;;;;;13.38;6.55;;;1.30;99.90;;;;;;6363421;22;20019;-80
2023/04/05 04:25:01;;;;;;;10.80;6.45;;;1.20;99.90;;;;;;6335855;22;20030;-78
2023/04/05 04:27:29;;;;;;;10.15;5.82;;;1.10;99.90;;;;;;6335830;22;20052;-79
2023/04/05 04:30:00;;;;;;;10.52;6.18;;;1.20;99.90;;;;;;6363813;22;20015;-79
2023/04/05 04:32:46;;;;;;;14.38;6.38;;;1.10;99.90;;;;;;6335647;22;20105;-79
2023/04/05 04:35:23;;;;;;;9.52;5.95;;;1.20;99.90;;;;;;6363691;22;20029;-79
2023/04/05 04:38:09;;;;;;;10.82;5.85;;;1.20;99.90;;;;;;6335545;22;20089;-78
2023/04/05 04:40:40;;;;;;;11.10;6.07;;;1.00;99.90;;;;;;6363481;22;20019;-80
2023/04/05 04:43:08;;;;;;;11.15;7.13;;;1.00;99.90;;;;;;6336509;22;20010;-79
2023/04/05 04:45:36;;;;;;;10.63;6.78;;;1.10;99.90;;;;;;6338181;22;20022;-79
2023/04/05 04:48:03;;;;;;;9.55;6.53;;;1.00;99.90;;;;;;6366281;22;20014;-80
2023/04/05 04:50:30;;;;;;;10.95;6.80;;;1.00;99.90;;;;;;6338175;22;20416;-80
2023/04/05 04:52:58;;;;;;;10.52;6.88;;;1.00;99.90;;;;;;6367509;22;20060;-81
2023/04/05 04:55:26;;;;;;;13.27;6.38;;;1.00;99.90;;;;;;6366633;22;20029;-82
2023/04/05 04:57:53;;;;;;;14.13;7.32;;;1.10;99.90;;;;;;6337495;22;20061;-81
2023/04/05 05:00:20;;;;;;;13.13;6.65;;;1.10;99.90;;;;;;6337743;22;20014;-79
2023/04/05 05:02:46;;;;;;;12.15;6.65;;;1.10;99.90;;;;;;6365093;22;20795;-80
2023/04/05 05:05:12;;;;;;;14.73;7.35;;;1.00;99.90;;;;;;6336702;22;20026;-82
2023/04/05 05:07:42;;;;;;;13.23;7.55;;;1.10;99.90;;;;;;6337170;22;20026;-82
2023/04/05 05:10:10;;;;;;;13.15;6.95;;;1.10;99.90;;;;;;6365202;22;20014;-81
2023/04/05 05:12:37;;;;;;;12.98;6.95;;;1.20;99.90;;;;;;6336692;22;20038;-81
2023/04/05 05:15:03;;;;;;;14.65;8.68;;;1.20;99.90;;;;;;6336613;22;20026;-80
2023/04/05 05:17:31;;;;;;;12.32;7.20;;;1.20;99.90;;;;;;6364798;22;20057;-81
2023/04/05 05:19:59;;;;;;;14.40;8.23;;;1.20;99.90;;;;;;6336661;22;20064;-80
2023/04/05 05:22:26;;;;;;;11.65;8.13;;;1.20;99.90;;;;;;6337201;22;20082;-81
2023/04/05 05:24:52;;;;;;;16.15;8.73;;;1.20;99.90;;;;;;6364529;22;20052;-81
2023/04/05 05:27:17;;;;;;;19.00;7.80;;;1.30;99.90;;;;;;6336351;22;20090;-82
2023/04/05 05:29:43;;;;;;;15.13;8.15;;;1.30;99.90;;;;;;6364871;22;20129;-80
2023/04/05 05:32:13;;;;;;;17.17;9.35;;;1.30;99.90;;;;;;6365133;22;20285;-81
2023/04/05 05:34:40;;;;;;;16.42;8.88;;;1.40;99.90;;;;;;6365247;22;20010;-79
2023/04/05 05:37:08;;;;;;;18.75;8.65;;;1.50;99.90;;;;;;6336401;22;20093;-79
2023/04/05 05:39:35;;;;;;;14.35;8.48;;;1.50;99.90;;;;;;6336438;22;20089;-80
2023/04/05 05:42:02;;;;;;;12.48;7.38;;;1.60;99.90;;;;;;6336333;22;20382;-80
2023/04/05 05:44:28;;;;;;;11.77;8.63;;;1.60;99.90;;;;;;6336409;22;20046;-80
2023/04/05 05:46:54;;;;;;;14.00;8.65;;;1.70;99.90;;;;;;6364345;22;20062;-81
2023/04/05 05:49:20;;;;;;;16.17;7.90;;;1.80;99.90;;;;;;6310573;22;20102;-81
2023/04/05 05:51:46;;;;;;;18.33;8.63;;;1.80;99.90;;;;;;6364738;22;20902;-81
2023/04/05 05:54:12;;;;;;;14.65;8.88;;;1.90;99.90;;;;;;6364379;22;20010;-80
2023/04/05 05:56:37;;;;;;;14.77;8.38;;;2.00;99.90;;;;;;6364138;22;20118;-80
2023/04/05 05:59:03;;;;;;;13.77;8.05;;;1.90;99.90;;;;;;6364816;22;20400;-80
2023/04/05 06:01:29;;;;;;;14.20;8.50;;;2.00;99.90;;;;;;6365181;22;20100;-80
2023/04/05 06:03:55;;;;;;;11.93;7.82;;;1.90;99.90;;;;;;6337045;22;20102;-81
2023/04/05 06:06:21;;;;;;;18.73;9.00;;;1.90;99.90;;;;;;6336549;22;20029;-80
2023/04/05 06:08:48;;;;;;;16.02;9.25;;;2.00;99.90;;;;;;6365288;22;20341;-81
2023/04/05 06:11:18;;;;;;;13.98;8.95;;;2.00;99.90;;;;;;6365322;22;20281;-81
2023/04/05 06:13:44;;;;;;;20.45;11.57;;;2.00;99.90;;;;;;6364380;22;20015;-81
2023/04/05 06:16:10;;;;;;;17.85;10.73;;;2.10;99.90;;;;;;6334297;22;20450;-81
2023/04/05 06:18:36;;;;;;;18.45;11.40;;;2.20;99.90;;;;;;6335749;22;20026;-81
2023/04/05 06:21:01;;;;;;;15.35;9.85;;;2.20;99.90;;;;;;6336556;22;20109;-81
2023/04/05 06:23:27;;;;;;;16.00;9.02;;;2.30;99.90;;;;;;6335992;22;20018;-80
2023/04/05 06:25:55;;;;;;;16.63;9.80;;;2.30;99.90;;;;;;6363881;22;20019;-79
2023/04/05 06:28:21;;;;;;;22.02;9.25;;;2.40;99.90;;;;;;6335681;22;20042;-80
2023/04/05 06:30:46;;;;;;;18.13;9.88;;;2.40;99.90;;;;;;6336458;22;20298;-83
2023/04/05 06:33:12;;;;;;;16.42;9.23;;;2.50;99.90;;;;;;6336479;22;20109;-83
2023/04/05 06:35:38;;;;;;;14.43;9.05;;;2.50;99.90;;;;;;6309565;22;20026;-82
2023/04/05 06:38:03;;;;;;;18.33;9.32;;;2.50;99.90;;;;;;6335229;22;20431;-80
2023/04/05 06:40:29;;;;;;;24.17;11.55;;;2.70;99.90;;;;;;6364202;22;20090;-83
2023/04/05 06:42:55;;;;;;;13.65;9.68;;;2.80;99.90;;;;;;6310050;22;20025;-83
2023/04/05 06:45:20;;;;;;;18.67;10.00;;;2.80;99.90;;;;;;6336154;22;20081;-86
2023/04/05 06:47:46;;;;;;;16.77;9.70;;;2.90;99.90;;;;;;6337164;22;20135;-88
2023/04/05 06:50:12;;;;;;;20.50;9.82;;;3.00;99.90;;;;;;6365227;22;20377;-88
2023/04/05 06:52:38;;;;;;;18.42;10.05;;;3.10;99.90;;;;;;6336340;22;20026;-86
2023/04/05 06:55:04;;;;;;;16.92;9.85;;;3.10;99.90;;;;;;6365090;22;20019;-85
2023/04/05 06:57:30;;;;;;;16.02;10.05;;;3.20;99.90;;;;;;6336749;22;20060;-86
2023/04/05 06:59:56;;;;;;;19.70;10.38;;;3.30;99.90;;;;;;6365341;22;20721;-86
2023/04/05 07:02:21;;;;;;;18.52;9.88;;;3.30;99.90;;;;;;6337183;22;20063;-86
2023/04/05 07:04:47;;;;;;;17.08;9.77;;;3.40;99.90;;;;;;6336631;22;20026;-86
2023/04/05 07:07:13;;;;;;;17.17;9.80;;;3.60;99.90;;;;;;6336322;22;20026;-85
2023/04/05 07:09:39;;;;;;;17.60;9.93;;;3.60;99.90;;;;;;6336161;22;20432;-76
2023/04/05 07:12:06;;;;;;;16.13;9.98;;;3.70;99.90;;;;;;6363589;22;20030;-75
2023/04/05 07:14:33;;;;;;;15.18;9.48;;;3.70;99.90;;;;;;6364746;22;20018;-74
2023/04/05 07:16:59;;;;;;;13.48;8.93;;;3.80;99.90;;;;;;6330946;22;20030;-75
2023/04/05 07:19:25;;;;;;;19.02;9.77;;;3.90;99.90;;;;;;6331094;22;20023;-74
2023/04/05 07:21:51;;;;;;;17.08;10.13;;;4.00;99.90;;;;;;6331371;22;20493;-75
2023/04/05 07:24:17;;;;;;;14.55;9.05;;;4.00;99.90;;;;;;6305272;22;20374;-75
2023/04/05 07:26:43;;;;;;;14.63;9.05;;;4.10;99.90;;;;;;6304858;22;20018;-75
2023/04/05 07:29:10;;;;;;;14.88;8.55;;;4.30;99.90;;;;;;6331220;22;20015;-75
2023/04/05 07:31:37;;;;;;;15.55;9.07;;;4.40;99.90;;;;;;6330915;22;20094;-75
2023/04/05 07:34:03;;;;;;;14.23;9.40;;;4.50;99.90;;;;;;6332777;22;20019;-75
2023/04/05 07:36:29;;;;;;;12.57;9.50;;;4.30;99.90;;;;;;6330789;22;20109;-75
2023/04/05 07:38:56;;;;;;;16.00;9.27;;;4.50;99.90;;;;;;6304666;22;20023;-75
2023/04/05 07:41:23;;;;;;;16.75;9.18;;;4.60;99.90;;;;;;6333059;22;20050;-75
2023/04/05 07:43:49;;;;;;;17.90;9.35;;;4.70;99.90;;;;;;6332335;22;20030;-75
2023/04/05 07:46:15;;;;;;;12.80;8.93;;;4.80;99.90;;;;;;6330585;22;20023;-75
2023/04/05 07:48:41;;;;;;;13.70;8.23;;;4.80;99.90;;;;;;6333047;22;20726;-75
2023/04/05 07:51:08;;;;;;;13.43;8.80;;;4.90;99.90;;;;;;6330737;22;20098;-75
2023/04/05 07:53:35;;;;;;;10.95;8.27;;;5.10;99.90;;;;;;6332323;22;20093;-76
2023/04/05 07:56:05;;;;;;;18.35;7.63;;;5.10;99.90;;;;;;6330576;22;20023;-75
2023/04/05 07:58:32;;;;;;;12.32;8.52;;;5.10;99.90;;;;;;6330739;22;20750;-75
2023/04/05 08:01:01;;;;;;;12.35;8.00;;;5.20;99.90;;;;;;6332504;22;20522;-75
2023/04/05 08:03:28;;;;;;;9.60;7.13;;;5.20;99.90;;;;;;6304589;22;20026;-75
2023/04/05 08:05:53;;;;;;;12.02;7.00;;;5.30;99.90;;;;;;6331257;22;20055;-76
2023/04/05 08:08:19;;;;;;;12.23;7.50;;;5.50;99.90;;;;;;6333332;22;20175;-76
2023/04/05 08:10:45;;;;;;;11.45;8.32;;;5.60;99.90;;;;;;6331102;22;20223;-76
2023/04/05 08:13:11;;;;;;;13.95;8.48;;;5.50;99.90;;;;;;6330791;22;20121;-76
2023/04/05 08:15:36;;;;;;;13.07;7.90;;;5.60;99.90;;;;;;6332685;22;20468;-76
2023/04/05 08:18:02;;;;;;;13.10;7.45;;;5.70;99.90;;;;;;6330394;22;20022;-77
2023/04/05 08:20:28;;;;;;;13.05;7.10;;;5.70;99.90;;;;;;6332968;22;20036;-76
2023/04/05 08:22:53;;;;;;;11.02;6.80;;;5.90;99.90;;;;;;6335077;22;20412;-77
2023/04/05 08:25:19;;;;;;;11.15;6.97;;;5.80;99.90;;;;;;6334755;22;20025;-77
2023/04/05 08:27:45;;;;;;;13.82;6.60;;;5.90;99.90;;;;;;6335002;22;20015;-77
2023/04/05 08:30:11;;;;;;;10.05;6.38;;;6.20;99.90;;;;;;6332720;22;20282;-77
2023/04/05 08:32:36;;;;;;;9.23;6.03;;;6.10;99.90;;;;;;6332477;22;20027;-76
2023/04/05 08:35:02;;;;;;;8.57;5.70;;;6.20;99.90;;;;;;6306650;22;20014;-75
2023/04/05 08:37:28;;;;;;;9.15;5.47;;;6.30;99.90;;;;;;6334072;22;20030;-75
2023/04/05 08:39:54;;;;;;;7.65;4.90;;;6.30;99.90;;;;;;6334478;22;20022;-75
2023/04/05 08:42:31;;;;;;;9.10;6.43;;;6.50;99.90;;;;;;6332630;22;20029;-75
2023/04/05 08:44:59;;;;;;;8.55;5.03;;;6.50;99.90;;;;;;6305874;22;20072;-74
2023/04/05 08:47:26;;;;;;;8.88;5.55;;;6.60;99.90;;;;;;6334369;22;20102;-76
2023/04/05 08:49:52;;;;;;;8.82;5.22;;;6.70;99.90;;;;;;6332333;22;20026;-76
2023/04/05 08:52:18;;;;;;;11.15;5.03;;;6.60;99.90;;;;;;6333962;22;20014;-76
2023/04/05 08:54:44;;;;;;;7.65;5.03;;;6.70;99.90;;;;;;6332518;22;20327;-73
2023/04/05 08:57:10;;;;;;;8.30;4.43;;;6.90;99.90;;;;;;6331289;22;20026;-74
2023/04/05 08:59:39;;;;;;;8.15;4.30;;;7.70;99.90;;;;;;6334269;22;20019;-74
2023/04/05 09:02:16;;;;;;;8.85;4.00;;;7.90;99.90;;;;;;6334204;22;20034;-74
2023/04/05 09:04:43;;;;;;;7.05;4.45;;;8.20;99.90;;;;;;6332449;22;20022;-74
2023/04/05 09:07:12;;;;;;;6.40;3.67;;;8.60;99.90;;;;;;6332312;22;20287;-75
2023/04/05 09:09:41;;;;;;;6.40;3.90;;;8.70;99.90;;;;;;6332587;22;20409;-75
2023/04/05 09:12:07;;;;;;;8.55;4.18;;;8.50;99.90;;;;;;6307041;22;20103;-75
2023/04/05 09:14:34;;;;;;;10.75;4.35;;;8.90;99.90;;;;;;6305928;22;20105;-81
2023/04/05 09:17:02;;;;;;;6.53;4.25;;;8.70;99.90;;;;;;6349014;22;20022;-74
2023/04/05 09:19:28;;;;;;;6.70;4.10;;;8.50;99.90;;;;;;6366192;22;20024;-76
2023/04/05 09:21:58;;;;;;;7.32;4.00;;;8.30;99.90;;;;;;6337423;22;20437;-77
2023/04/05 09:24:34;;;;;;;5.68;3.67;;;8.20;99.90;;;;;;6365823;22;20006;-74
2023/04/05 09:27:17;;;;;;;5.95;3.00;;;8.00;99.90;;;;;;6337769;22;20454;-75
2023/04/05 09:29:47;;;;;;;7.00;3.45;;;8.20;99.90;;;;;;6311793;22;20097;-78
2023/04/05 09:32:17;;;;;;;5.35;3.20;;;8.20;99.90;;;;;;6366515;22;20022;-78
2023/04/05 09:34:43;;;;;;;6.75;2.53;;;8.30;99.90;;;;;;6337507;22;20032;-77
2023/04/05 09:37:18;;;;;;;4.57;3.10;;;8.20;99.90;;;;;;6337102;22;20096;-77
2023/04/05 09:39:45;;;;;;;5.53;3.42;;;8.10;99.90;;;;;;6366048;22;20081;-77
2023/04/05 09:42:16;;;;;;;5.63;3.78;;;8.20;99.90;;;;;;6366443;22;20014;-77
2023/04/05 09:44:53;;;;;;;8.43;4.82;;;8.30;99.90;;;;;;6366050;22;20018;-77
2023/04/05 09:47:20;;;;;;;5.57;3.80;;;8.30;99.90;;;;;;6366238;22;20025;-78
2023/04/05 09:49:46;;;;;;;5.20;3.63;;;8.20;99.90;;;;;;6365600;22;20022;-77
2023/04/05 09:52:30;;;;;;;8.80;3.42;;;8.10;99.90;;;;;;6365871;22;20013;-77
2023/04/05 09:55:01;;;;;;;5.35;3.42;;;8.20;99.50;;;;;;6336972;22;20385;-77
2023/04/05 09:57:32;;;;;;;6.05;3.95;;;8.10;99.90;;;;;;6337304;22;20027;-77
2023/04/05 09:59:57;;;;;;;5.93;4.03;;;8.20;99.70;;;;;;6337211;22;20010;-77
2023/04/05 10:02:24;;;;;;;4.90;3.72;;;8.30;99.90;;;;;;6365454;22;20079;-77
2023/04/05 10:04:50;;;;;;;6.30;3.90;;;8.40;99.90;;;;;;6337315;22;20016;-77
2023/04/05 10:07:18;;;;;;;6.88;3.88;;;8.40;99.90;;;;;;6365837;22;20026;-77
2023/04/05 10:09:46;;;;;;;5.53;3.47;;;8.30;99.90;;;;;;6337457;22;20105;-77
2023/04/05 10:12:20;;;;;;;4.53;3.63;;;8.30;99.90;;;;;;6366064;22;20018;-77
2023/04/05 10:14:46;;;;;;;6.57;3.90;;;8.30;99.90;;;;;;6365560;22;20564;-81
2023/04/05 10:17:24;;;;;;;10.00;3.92;;;8.60;99.90;;;;;;6311151;22;20107;-76
2023/04/05 10:20:16;;;;;;;11.27;4.18;;;8.60;99.90;;;;;;6365491;22;20033;-76
2023/04/05 10:22:41;;;;;;;6.60;4.65;;;8.80;99.90;;;;;;6365773;22;20101;-77
2023/04/05 10:25:19;;;;;;;6.82;4.50;;;8.70;99.90;;;;;;6337164;22;20044;-77
2023/04/05 10:27:55;;;;;;;5.22;3.60;;;8.90;99.90;;;;;;6365537;22;20072;-76
2023/04/05 10:30:23;;;;;;;5.55;4.30;;;8.90;99.90;;;;;;6365656;22;20011;-76
2023/04/05 10:33:25;;;;;;;7.03;3.80;;;8.90;99.90;;;;;;6337297;22;20018;-76
2023/04/05 10:36:07;;;;;;;7.63;3.72;;;8.80;99.90;;;;;;6337072;22;20040;-76
2023/04/05 10:38:54;;;;;;;6.10;4.13;;;8.70;98.90;;;;;;6367648;22;20018;-89
2023/04/05 10:41:20;;;;;;;6.97;4.20;;;8.70;99.90;;;;;;6338513;22;20026;-88
2023/04/05 10:43:48;;;;;;;8.48;4.20;;;8.60;99.90;;;;;;6338605;22;20026;-84
2023/04/05 10:46:19;;;;;;;9.00;4.25;;;8.50;99.90;;;;;;6341655;22;20018;-89
2023/04/05 10:49:07;;;;;;;10.02;4.07;;;8.50;99.70;;;;;;6339997;22;20085;-89
2023/04/05 10:51:34;;;;;;;5.38;3.70;;;8.60;99.90;;;;;;6339886;22;20459;-90
2023/04/05 10:54:00;;;;;;;5.90;4.43;;;8.70;99.80;;;;;;6340726;22;20334;-89
2023/04/05 10:56:26;;;;;;;9.82;4.20;;;8.80;99.90;;;;;;6368552;22;20021;-91
2023/04/05 10:58:54;;;;;;;6.13;3.78;;;8.80;99.90;;;;;;6340725;22;20074;-89
2023/04/05 11:01:21;;;;;;;6.32;3.42;;;8.80;99.50;;;;;;6368351;22;20025;-89
2023/04/05 11:03:48;;;;;;;8.05;3.97;;;8.70;98.70;;;;;;6313719;22;20029;-90
2023/04/05 11:06:37;;;;;;;5.78;3.42;;;8.70;99.70;;;;;;6368245;22;20018;-90
2023/04/05 11:09:12;;;;;;;6.40;4.85;;;8.90;99.50;;;;;;6339825;22;20018;-89
2023/04/05 11:11:50;;;;;;;9.15;4.20;;;9.10;99.90;;;;;;6340440;22;20022;-90
2023/04/05 11:14:36;;;;;;;6.93;3.97;;;9.00;97.70;;;;;;6368310;22;20105;-89
2023/04/05 11:17:02;;;;;;;10.13;3.58;;;9.00;98.00;;;;;;6313971;22;20026;-90
2023/04/05 11:19:47;;;;;;;8.15;4.45;;;8.90;99.90;;;;;;6340512;22;20029;-89
2023/04/05 11:22:25;;;;;;;6.93;4.43;;;8.90;98.80;;;;;;6338937;22;20087;-90
2023/04/05 11:25:00;;;;;;;5.80;3.90;;;9.00;98.50;;;;;;6340075;22;20022;-90
2023/04/05 11:27:30;;;;;;;5.13;4.13;;;9.10;98.60;;;;;;6314409;22;20033;-90
2023/04/05 11:29:57;;;;;;;6.53;3.85;;;9.10;99.90;;;;;;6340533;22;20025;-90
2023/04/05 11:32:36;;;;;;;5.60;4.00;;;9.10;98.00;;;;;;6339286;22;20053;-90
2023/04/05 11:35:11;;;;;;;6.38;4.18;;;9.00;99.00;;;;;;6340993;22;20022;-90
2023/04/05 11:37:54;;;;;;;4.80;3.72;;;9.00;97.00;;;;;;6340985;22;20022;-89
2023/04/05 11:40:46;;;;;;;6.25;4.57;;;9.00;96.80;;;;;;6368435;22;20006;-89
2023/04/05 11:43:12;;;;;;;11.93;4.32;;;9.10;98.60;;;;;;6336860;22;20022;-90
2023/04/05 11:45:40;;;;;;;11.10;4.95;;;9.10;98.70;;;;;;6340452;22;20054;-89
2023/04/05 11:48:08;;;;;;;9.00;4.07;;;9.00;96.70;;;;;;6340526;22;20026;-89
2023/04/05 11:50:40;;;;;;;7.78;3.97;;;8.90;98.30;;;;;;6367555;22;20294;-89
2023/04/05 11:53:14;;;;;;;5.47;4.13;;;9.00;98.30;;;;;;6339610;22;20026;-88
2023/04/05 11:55:45;;;;;;;5.55;3.47;;;9.10;95.90;;;;;;6369040;22;20318;-91
2023/04/05 11:58:20;;;;;;;4.63;3.65;;;9.20;96.10;;;;;;6314096;22;20084;-89
2023/04/05 12:00:55;;;;;;;6.68;4.47;;;9.20;94.50;;;;;;6367683;22;20018;-87
2023/04/05 12:03:21;;;;;;;5.32;3.60;;;9.10;96.60;;;;;;6339737;22;20149;-87
2023/04/05 12:05:51;;;;;;;7.60;3.90;;;9.00;93.40;;;;;;6368020;22;20659;-87
2023/04/05 12:08:21;;;;;;;7.95;4.25;;;9.00;95.10;;;;;;6367959;22;20014;-87
2023/04/05 12:10:54;;;;;;;9.25;4.40;;;9.10;94.70;;;;;;6339734;22;20083;-87
2023/04/05 12:13:28;;;;;;;5.53;4.55;;;9.00;96.50;;;;;;6339134;22;20022;-87
2023/04/05 12:16:00;;;;;;;5.28;3.72;;;9.10;95.70;;;;;;6366623;22;20029;-87
2023/04/05 12:18:27;;;;;;;5.30;3.78;;;9.00;95.40;;;;;;6365898;22;20103;-87
2023/04/05 12:20:54;;;;;;;6.82;4.13;;;9.00;93.80;;;;;;6366837;22;20429;-86
2023/04/05 12:23:21;;;;;;;8.57;4.60;;;9.10;94.80;;;;;;6313963;22;20054;-88
2023/04/05 12:25:47;;;;;;;6.72;4.25;;;9.30;97.20;;;;;;6313824;22;20018;-87
2023/04/05 12:28:14;;;;;;;5.10;4.22;;;9.20;95.00;;;;;;6339372;22;20029;-88
2023/04/05 12:30:50;;;;;;;5.70;4.10;;;9.30;97.30;;;;;;6367694;22;20018;-87
2023/04/05 12:33:26;;;;;;;7.32;4.20;;;9.30;96.10;;;;;;6312421;22;20018;-86
2023/04/05 12:35:52;;;;;;;8.55;4.50;;;9.20;92.50;;;;;;6366772;22;20082;-86
2023/04/05 12:38:17;;;;;;;9.50;4.07;;;9.10;97.30;;;;;;6311264;22;20343;-84
2023/04/05 12:40:43;;;;;;;7.18;4.35;;;9.20;96.80;;;;;;6365753;22;20139;-84
2023/04/05 12:43:09;;;;;;;9.40;4.70;;;9.30;95.50;;;;;;6338355;22;20029;-86
2023/04/05 12:45:41;;;;;;;5.65;4.28;;;9.30;95.90;;;;;;6365639;22;20042;-85
2023/04/05 12:48:28;;;;;;;4.93;4.10;;;9.50;95.40;;;;;;6366369;22;20022;-86
2023/04/05 12:50:54;;;;;;;8.75;3.83;;;9.50;95.10;;;;;;6338034;22;20018;-87
2023/04/05 12:53:21;;;;;;;8.82;4.07;;;9.60;92.80;;;;;;6339418;22;20025;-86
2023/04/05 12:55:50;;;;;;;5.30;3.38;;;9.50;94.10;;;;;;6367881;22;20437;-85
2023/04/05 12:58:16;;;;;;;6.63;3.67;;;9.50;96.70;;;;;;6371656;22;20018;-87
2023/04/05 13:00:42;;;;;;;4.30;3.60;;;9.50;96.50;;;;;;6341924;22;20449;-87